sensor_id;sensor_type;location;lat;lon;timestamp;P1;durP1;ratioP1;P2;durP2;ratioP2
68509;SDS011;55512;50.102;19.958;2023-06-14T00:02:09;9.30;;;4.20;;
68509;SDS011;55512;50.102;19.958;2023-06-14T00:04:35;10.60;;;5.30;;
68509;SDS011;55512;50.102;19.958;2023-06-14T00:07:01;10.00;;;5.10;;
68509;SDS011;55512;50.102;19.958;2023-06-14T00:09:27;9.00;;;4.20;;
68509;SDS011;55512;50.102;19.958;2023-06-14T00:11:52;10.40;;;5.00;;
68509;SDS011;55512;50.102;19.958;2023-06-14T00:14:18;11.80;;;5.30;;
68509;SDS011;55512;50.102;19.958;2023-06-14T00:16:43;10.30;;;5.30;;
68509;SDS011;55512;50.102;19.958;2023-06-14T00:19:09;11.10;;;5.10;;
68509;SDS011;55512;50.102;19.958;2023-06-14T00:21:36;8.90;;;4.70;;
68509;SDS011;55512;50.102;19.958;2023-06-14T00:24:03;10.60;;;4.90;;
68509;SDS011;55512;50.102;19.958;2023-06-14T00:26:29;9.60;;;4.60;;
68509;SDS011;55512;50.102;19.958;2023-06-14T00:28:55;10.70;;;5.00;;
68509;SDS011;55512;50.102;19.958;2023-06-14T00:31:22;9.90;;;5.80;;
68509;SDS011;55512;50.102;19.958;2023-06-14T00:33:48;10.50;;;4.80;;
68509;SDS011;55512;50.102;19.958;2023-06-14T00:36:14;11.10;;;5.40;;
68509;SDS011;55512;50.102;19.958;2023-06-14T00:38:39;9.60;;;4.80;;
68509;SDS011;55512;50.102;19.958;2023-06-14T00:41:05;10.80;;;5.80;;
68509;SDS011;55512;50.102;19.958;2023-06-14T00:43:30;10.00;;;5.50;;
68509;SDS011;55512;50.102;19.958;2023-06-14T00:45:55;13.00;;;5.50;;
68509;SDS011;55512;50.102;19.958;2023-06-14T00:48:22;8.80;;;4.60;;
68509;SDS011;55512;50.102;19.958;2023-06-14T00:50:50;9.40;;;4.30;;
68509;SDS011;55512;50.102;19.958;2023-06-14T00:53:18;8.80;;;4.20;;
68509;SDS011;55512;50.102;19.958;2023-06-14T00:55:46;10.70;;;4.70;;
68509;SDS011;55512;50.102;19.958;2023-06-14T00:58:12;10.00;;;4.40;;
68509;SDS011;55512;50.102;19.958;2023-06-14T01:00:39;10.50;;;5.20;;
68509;SDS011;55512;50.102;19.958;2023-06-14T01:03:04;10.60;;;5.10;;
68509;SDS011;55512;50.102;19.958;2023-06-14T01:05:30;9.50;;;4.10;;
68509;SDS011;55512;50.102;19.958;2023-06-14T01:11:12;11.30;;;5.70;;
68509;SDS011;55512;50.102;19.958;2023-06-14T01:13:45;11.00;;;5.40;;
68509;SDS011;55512;50.102;19.958;2023-06-14T01:16:11;12.20;;;5.10;;
68509;SDS011;55512;50.102;19.958;2023-06-14T01:18:38;11.90;;;5.50;;
68509;SDS011;55512;50.102;19.958;2023-06-14T01:21:04;10.70;;;5.30;;
68509;SDS011;55512;50.102;19.958;2023-06-14T01:23:31;14.30;;;6.10;;
68509;SDS011;55512;50.102;19.958;2023-06-14T01:25:58;11.20;;;5.90;;
68509;SDS011;55512;50.102;19.958;2023-06-14T01:28:26;11.70;;;6.20;;
68509;SDS011;55512;50.102;19.958;2023-06-14T01:30:59;12.40;;;5.90;;
68509;SDS011;55512;50.102;19.958;2023-06-14T01:33:29;12.20;;;5.50;;
68509;SDS011;55512;50.102;19.958;2023-06-14T01:35:57;12.50;;;5.50;;
68509;SDS011;55512;50.102;19.958;2023-06-14T01:38:25;11.70;;;5.30;;
68509;SDS011;55512;50.102;19.958;2023-06-14T01:40:54;12.00;;;5.60;;
68509;SDS011;55512;50.102;19.958;2023-06-14T01:43:23;11.00;;;5.30;;
68509;SDS011;55512;50.102;19.958;2023-06-14T01:45:49;12.80;;;6.10;;
68509;SDS011;55512;50.102;19.958;2023-06-14T01:48:16;11.70;;;6.40;;
68509;SDS011;55512;50.102;19.958;2023-06-14T01:50:42;12.40;;;6.60;;
68509;SDS011;55512;50.102;19.958;2023-06-14T01:53:09;11.40;;;6.00;;
68509;SDS011;55512;50.102;19.958;2023-06-14T01:55:35;12.80;;;7.00;;
68509;SDS011;55512;50.102;19.958;2023-06-14T01:58:05;12.20;;;5.60;;
68509;SDS011;55512;50.102;19.958;2023-06-14T02:00:31;10.40;;;5.40;;
68509;SDS011;55512;50.102;19.958;2023-06-14T02:02:57;10.90;;;5.00;;
68509;SDS011;55512;50.102;19.958;2023-06-14T02:05:22;10.80;;;5.40;;
68509;SDS011;55512;50.102;19.958;2023-06-14T02:07:49;9.50;;;4.80;;
68509;SDS011;55512;50.102;19.958;2023-06-14T02:10:15;10.50;;;5.00;;
68509;SDS011;55512;50.102;19.958;2023-06-14T02:12:43;10.80;;;5.30;;
68509;SDS011;55512;50.102;19.958;2023-06-14T02:15:09;10.70;;;5.40;;
68509;SDS011;55512;50.102;19.958;2023-06-14T02:17:47;11.50;;;5.40;;
68509;SDS011;55512;50.102;19.958;2023-06-14T02:20:14;11.20;;;6.00;;
68509;SDS011;55512;50.102;19.958;2023-06-14T02:22:41;13.20;;;5.70;;
68509;SDS011;55512;50.102;19.958;2023-06-14T02:25:07;11.60;;;5.50;;
68509;SDS011;55512;50.102;19.958;2023-06-14T02:27:34;12.70;;;5.70;;
68509;SDS011;55512;50.102;19.958;2023-06-14T02:30:00;13.90;;;6.20;;
68509;SDS011;55512;50.102;19.958;2023-06-14T02:32:26;12.00;;;5.90;;
68509;SDS011;55512;50.102;19.958;2023-06-14T02:34:54;12.60;;;5.00;;
68509;SDS011;55512;50.102;19.958;2023-06-14T02:37:20;11.10;;;5.60;;
68509;SDS011;55512;50.102;19.958;2023-06-14T02:39:53;13.40;;;6.80;;
68509;SDS011;55512;50.102;19.958;2023-06-14T02:42:19;12.70;;;5.90;;
68509;SDS011;55512;50.102;19.958;2023-06-14T02:44:45;13.50;;;6.80;;
68509;SDS011;55512;50.102;19.958;2023-06-14T02:47:16;11.80;;;5.20;;
68509;SDS011;55512;50.102;19.958;2023-06-14T02:49:42;12.00;;;6.10;;
68509;SDS011;55512;50.102;19.958;2023-06-14T02:52:08;12.40;;;6.20;;
68509;SDS011;55512;50.102;19.958;2023-06-14T02:54:34;13.20;;;6.10;;
68509;SDS011;55512;50.102;19.958;2023-06-14T02:57:00;12.10;;;5.80;;
68509;SDS011;55512;50.102;19.958;2023-06-14T02:59:25;12.80;;;5.90;;
68509;SDS011;55512;50.102;19.958;2023-06-14T03:01:51;11.00;;;5.80;;
68509;SDS011;55512;50.102;19.958;2023-06-14T03:04:17;10.70;;;5.50;;
68509;SDS011;55512;50.102;19.958;2023-06-14T03:06:42;12.60;;;6.10;;
68509;SDS011;55512;50.102;19.958;2023-06-14T03:09:09;12.90;;;5.60;;
68509;SDS011;55512;50.102;19.958;2023-06-14T03:11:34;11.10;;;5.30;;
68509;SDS011;55512;50.102;19.958;2023-06-14T03:14:01;12.70;;;5.20;;
68509;SDS011;55512;50.102;19.958;2023-06-14T03:16:29;11.40;;;5.20;;
68509;SDS011;55512;50.102;19.958;2023-06-14T03:18:55;11.10;;;5.10;;
68509;SDS011;55512;50.102;19.958;2023-06-14T03:21:21;10.10;;;4.80;;
68509;SDS011;55512;50.102;19.958;2023-06-14T03:23:47;10.70;;;5.30;;
68509;SDS011;55512;50.102;19.958;2023-06-14T03:26:14;14.30;;;5.30;;
68509;SDS011;55512;50.102;19.958;2023-06-14T03:28:45;11.70;;;5.60;;
68509;SDS011;55512;50.102;19.958;2023-06-14T03:31:12;11.00;;;5.10;;
68509;SDS011;55512;50.102;19.958;2023-06-14T03:33:39;14.20;;;5.10;;
68509;SDS011;55512;50.102;19.958;2023-06-14T03:36:05;9.20;;;4.70;;
68509;SDS011;55512;50.102;19.958;2023-06-14T03:38:34;11.80;;;4.80;;
68509;SDS011;55512;50.102;19.958;2023-06-14T03:41:00;12.70;;;5.10;;
68509;SDS011;55512;50.102;19.958;2023-06-14T03:43:26;10.60;;;4.90;;
68509;SDS011;55512;50.102;19.958;2023-06-14T03:45:52;10.30;;;5.40;;
68509;SDS011;55512;50.102;19.958;2023-06-14T03:48:18;10.10;;;4.80;;
68509;SDS011;55512;50.102;19.958;2023-06-14T03:50:43;9.00;;;4.20;;
68509;SDS011;55512;50.102;19.958;2023-06-14T03:53:10;8.80;;;4.40;;
68509;SDS011;55512;50.102;19.958;2023-06-14T03:55:36;9.30;;;3.80;;
68509;SDS011;55512;50.102;19.958;2023-06-14T03:58:03;10.50;;;4.60;;
68509;SDS011;55512;50.102;19.958;2023-06-14T04:00:28;8.80;;;4.30;;
68509;SDS011;55512;50.102;19.958;2023-06-14T04:02:54;9.20;;;4.30;;
68509;SDS011;55512;50.102;19.958;2023-06-14T04:05:20;9.20;;;4.00;;
68509;SDS011;55512;50.102;19.958;2023-06-14T04:07:46;9.60;;;4.30;;
68509;SDS011;55512;50.102;19.958;2023-06-14T04:10:14;9.80;;;4.10;;
68509;SDS011;55512;50.102;19.958;2023-06-14T04:12:46;9.50;;;4.20;;
68509;SDS011;55512;50.102;19.958;2023-06-14T04:15:11;9.00;;;4.40;;
68509;SDS011;55512;50.102;19.958;2023-06-14T04:17:37;9.20;;;4.20;;
68509;SDS011;55512;50.102;19.958;2023-06-14T04:20:04;9.60;;;4.50;;
68509;SDS011;55512;50.102;19.958;2023-06-14T04:22:31;10.60;;;4.10;;
68509;SDS011;55512;50.102;19.958;2023-06-14T04:24:58;8.60;;;4.80;;
68509;SDS011;55512;50.102;19.958;2023-06-14T04:27:25;9.40;;;4.60;;
68509;SDS011;55512;50.102;19.958;2023-06-14T04:29:52;10.70;;;5.20;;
68509;SDS011;55512;50.102;19.958;2023-06-14T04:32:23;10.00;;;4.50;;
68509;SDS011;55512;50.102;19.958;2023-06-14T04:34:54;11.40;;;5.30;;
68509;SDS011;55512;50.102;19.958;2023-06-14T04:37:23;9.80;;;4.20;;
68509;SDS011;55512;50.102;19.958;2023-06-14T04:39:49;10.40;;;5.10;;
68509;SDS011;55512;50.102;19.958;2023-06-14T04:42:15;10.70;;;5.30;;
68509;SDS011;55512;50.102;19.958;2023-06-14T04:44:42;10.10;;;5.00;;
68509;SDS011;55512;50.102;19.958;2023-06-14T04:47:09;11.00;;;5.90;;
68509;SDS011;55512;50.102;19.958;2023-06-14T04:49:36;10.70;;;5.40;;
68509;SDS011;55512;50.102;19.958;2023-06-14T04:52:02;9.70;;;5.30;;
68509;SDS011;55512;50.102;19.958;2023-06-14T04:54:27;11.00;;;5.70;;
68509;SDS011;55512;50.102;19.958;2023-06-14T04:56:53;8.90;;;4.20;;
68509;SDS011;55512;50.102;19.958;2023-06-14T04:59:21;10.30;;;4.90;;
68509;SDS011;55512;50.102;19.958;2023-06-14T05:01:48;9.10;;;4.70;;
68509;SDS011;55512;50.102;19.958;2023-06-14T05:04:15;10.20;;;4.70;;
68509;SDS011;55512;50.102;19.958;2023-06-14T05:06:45;6.30;;;2.90;;
68509;SDS011;55512;50.102;19.958;2023-06-14T05:09:13;8.60;;;4.20;;
68509;SDS011;55512;50.102;19.958;2023-06-14T05:11:40;9.40;;;4.30;;
68509;SDS011;55512;50.102;19.958;2023-06-14T05:14:11;6.00;;;3.10;;
68509;SDS011;55512;50.102;19.958;2023-06-14T05:16:37;6.50;;;2.60;;
68509;SDS011;55512;50.102;19.958;2023-06-14T05:19:03;6.90;;;3.20;;
68509;SDS011;55512;50.102;19.958;2023-06-14T05:21:29;5.40;;;3.00;;
68509;SDS011;55512;50.102;19.958;2023-06-14T05:23:57;5.90;;;2.90;;
68509;SDS011;55512;50.102;19.958;2023-06-14T05:26:22;6.30;;;2.80;;
68509;SDS011;55512;50.102;19.958;2023-06-14T05:28:54;6.20;;;2.90;;
68509;SDS011;55512;50.102;19.958;2023-06-14T05:31:22;6.30;;;3.00;;
68509;SDS011;55512;50.102;19.958;2023-06-14T05:33:49;6.70;;;2.80;;
68509;SDS011;55512;50.102;19.958;2023-06-14T05:36:16;5.10;;;2.10;;
68509;SDS011;55512;50.102;19.958;2023-06-14T05:38:41;3.30;;;1.60;;
68509;SDS011;55512;50.102;19.958;2023-06-14T05:41:07;4.20;;;1.70;;
68509;SDS011;55512;50.102;19.958;2023-06-14T05:43:32;4.20;;;1.90;;
68509;SDS011;55512;50.102;19.958;2023-06-14T05:45:58;3.50;;;1.60;;
68509;SDS011;55512;50.102;19.958;2023-06-14T05:48:23;3.60;;;1.50;;
68509;SDS011;55512;50.102;19.958;2023-06-14T05:50:49;3.10;;;1.30;;
68509;SDS011;55512;50.102;19.958;2023-06-14T05:53:15;3.70;;;1.50;;
68509;SDS011;55512;50.102;19.958;2023-06-14T05:55:40;3.20;;;1.40;;
68509;SDS011;55512;50.102;19.958;2023-06-14T05:58:06;4.40;;;1.80;;
68509;SDS011;55512;50.102;19.958;2023-06-14T06:00:32;3.80;;;1.90;;
68509;SDS011;55512;50.102;19.958;2023-06-14T06:02:57;6.50;;;3.00;;
68509;SDS011;55512;50.102;19.958;2023-06-14T06:05:23;5.10;;;2.40;;
68509;SDS011;55512;50.102;19.958;2023-06-14T06:07:49;5.10;;;2.60;;
68509;SDS011;55512;50.102;19.958;2023-06-14T06:10:14;5.80;;;2.70;;
68509;SDS011;55512;50.102;19.958;2023-06-14T06:12:41;5.90;;;2.70;;
68509;SDS011;55512;50.102;19.958;2023-06-14T06:15:08;5.60;;;3.10;;
68509;SDS011;55512;50.102;19.958;2023-06-14T06:17:37;6.40;;;2.80;;
68509;SDS011;55512;50.102;19.958;2023-06-14T06:20:04;6.00;;;3.00;;
68509;SDS011;55512;50.102;19.958;2023-06-14T06:22:33;7.20;;;3.70;;
68509;SDS011;55512;50.102;19.958;2023-06-14T06:24:59;6.90;;;3.60;;
68509;SDS011;55512;50.102;19.958;2023-06-14T06:27:25;6.80;;;3.40;;
68509;SDS011;55512;50.102;19.958;2023-06-14T06:29:50;8.00;;;3.90;;
68509;SDS011;55512;50.102;19.958;2023-06-14T06:32:17;6.90;;;3.80;;
68509;SDS011;55512;50.102;19.958;2023-06-14T06:34:42;7.80;;;3.40;;
68509;SDS011;55512;50.102;19.958;2023-06-14T06:37:08;7.80;;;3.40;;
68509;SDS011;55512;50.102;19.958;2023-06-14T06:39:34;8.20;;;3.20;;
68509;SDS011;55512;50.102;19.958;2023-06-14T06:42:00;6.60;;;3.00;;
68509;SDS011;55512;50.102;19.958;2023-06-14T06:44:26;8.10;;;3.50;;
68509;SDS011;55512;50.102;19.958;2023-06-14T06:46:51;6.10;;;2.30;;
68509;SDS011;55512;50.102;19.958;2023-06-14T06:49:17;6.30;;;2.50;;
68509;SDS011;55512;50.102;19.958;2023-06-14T06:51:43;4.70;;;2.30;;
68509;SDS011;55512;50.102;19.958;2023-06-14T06:54:10;6.10;;;2.20;;
68509;SDS011;55512;50.102;19.958;2023-06-14T06:56:36;5.40;;;1.60;;
68509;SDS011;55512;50.102;19.958;2023-06-14T06:59:01;6.10;;;1.90;;
68509;SDS011;55512;50.102;19.958;2023-06-14T07:01:27;6.50;;;2.10;;
68509;SDS011;55512;50.102;19.958;2023-06-14T07:03:54;5.40;;;1.60;;
68509;SDS011;55512;50.102;19.958;2023-06-14T07:06:21;3.10;;;1.40;;
68509;SDS011;55512;50.102;19.958;2023-06-14T07:08:47;4.30;;;1.70;;
68509;SDS011;55512;50.102;19.958;2023-06-14T07:11:14;4.60;;;2.00;;
68509;SDS011;55512;50.102;19.958;2023-06-14T07:13:39;9.40;;;1.90;;
68509;SDS011;55512;50.102;19.958;2023-06-14T07:16:05;4.50;;;2.00;;
68509;SDS011;55512;50.102;19.958;2023-06-14T07:18:31;4.60;;;2.10;;
68509;SDS011;55512;50.102;19.958;2023-06-14T07:20:56;4.90;;;2.20;;
68509;SDS011;55512;50.102;19.958;2023-06-14T07:23:23;6.20;;;2.40;;
68509;SDS011;55512;50.102;19.958;2023-06-14T07:25:49;5.50;;;2.40;;
68509;SDS011;55512;50.102;19.958;2023-06-14T07:28:15;4.20;;;1.90;;
68509;SDS011;55512;50.102;19.958;2023-06-14T07:30:41;4.30;;;1.90;;
68509;SDS011;55512;50.102;19.958;2023-06-14T07:36:00;5.10;;;2.10;;
68509;SDS011;55512;50.102;19.958;2023-06-14T07:38:26;5.90;;;2.60;;
68509;SDS011;55512;50.102;19.958;2023-06-14T07:40:52;4.10;;;2.20;;
68509;SDS011;55512;50.102;19.958;2023-06-14T07:43:17;5.70;;;2.10;;
68509;SDS011;55512;50.102;19.958;2023-06-14T07:45:43;5.10;;;2.20;;
68509;SDS011;55512;50.102;19.958;2023-06-14T07:48:09;4.60;;;2.10;;
68509;SDS011;55512;50.102;19.958;2023-06-14T07:50:34;4.90;;;1.80;;
68509;SDS011;55512;50.102;19.958;2023-06-14T07:53:00;4.30;;;2.00;;
68509;SDS011;55512;50.102;19.958;2023-06-14T07:55:25;4.70;;;2.30;;
68509;SDS011;55512;50.102;19.958;2023-06-14T07:57:51;5.90;;;2.80;;
68509;SDS011;55512;50.102;19.958;2023-06-14T08:00:18;6.10;;;2.60;;
68509;SDS011;55512;50.102;19.958;2023-06-14T08:02:44;6.00;;;2.70;;
68509;SDS011;55512;50.102;19.958;2023-06-14T08:05:11;6.90;;;3.20;;
68509;SDS011;55512;50.102;19.958;2023-06-14T08:07:38;5.90;;;2.90;;
68509;SDS011;55512;50.102;19.958;2023-06-14T08:10:05;6.80;;;2.90;;
68509;SDS011;55512;50.102;19.958;2023-06-14T08:12:32;6.90;;;2.50;;
68509;SDS011;55512;50.102;19.958;2023-06-14T08:14:59;5.60;;;2.70;;
68509;SDS011;55512;50.102;19.958;2023-06-14T08:17:25;6.10;;;2.80;;
68509;SDS011;55512;50.102;19.958;2023-06-14T08:19:50;6.40;;;2.90;;
68509;SDS011;55512;50.102;19.958;2023-06-14T08:22:17;6.10;;;2.80;;
68509;SDS011;55512;50.102;19.958;2023-06-14T08:24:43;7.80;;;5.10;;
68509;SDS011;55512;50.102;19.958;2023-06-14T08:27:10;7.10;;;3.70;;
68509;SDS011;55512;50.102;19.958;2023-06-14T08:29:35;5.30;;;2.20;;
68509;SDS011;55512;50.102;19.958;2023-06-14T08:32:01;7.50;;;3.60;;
68509;SDS011;55512;50.102;19.958;2023-06-14T08:34:27;7.60;;;3.50;;
68509;SDS011;55512;50.102;19.958;2023-06-14T08:36:53;6.70;;;3.20;;
68509;SDS011;55512;50.102;19.958;2023-06-14T08:39:18;5.40;;;2.30;;
68509;SDS011;55512;50.102;19.958;2023-06-14T08:41:47;5.50;;;2.50;;
68509;SDS011;55512;50.102;19.958;2023-06-14T08:44:19;6.90;;;3.60;;
68509;SDS011;55512;50.102;19.958;2023-06-14T08:46:45;5.70;;;2.80;;
68509;SDS011;55512;50.102;19.958;2023-06-14T08:49:16;6.60;;;3.50;;
68509;SDS011;55512;50.102;19.958;2023-06-14T08:51:43;8.40;;;4.30;;
68509;SDS011;55512;50.102;19.958;2023-06-14T08:54:11;6.30;;;3.50;;
68509;SDS011;55512;50.102;19.958;2023-06-14T08:56:38;7.20;;;3.30;;
68509;SDS011;55512;50.102;19.958;2023-06-14T08:59:04;7.80;;;3.90;;
68509;SDS011;55512;50.102;19.958;2023-06-14T09:01:35;10.70;;;5.10;;
68509;SDS011;55512;50.102;19.958;2023-06-14T09:04:02;9.30;;;4.20;;
68509;SDS011;55512;50.102;19.958;2023-06-14T09:06:31;10.60;;;4.50;;
68509;SDS011;55512;50.102;19.958;2023-06-14T09:08:57;9.30;;;4.10;;
68509;SDS011;55512;50.102;19.958;2023-06-14T09:11:23;7.50;;;4.00;;
68509;SDS011;55512;50.102;19.958;2023-06-14T09:13:51;9.00;;;4.50;;
68509;SDS011;55512;50.102;19.958;2023-06-14T09:16:16;8.30;;;5.20;;
68509;SDS011;55512;50.102;19.958;2023-06-14T09:18:46;8.50;;;3.90;;
68509;SDS011;55512;50.102;19.958;2023-06-14T09:21:16;8.10;;;4.10;;
68509;SDS011;55512;50.102;19.958;2023-06-14T09:23:47;5.80;;;2.80;;
68509;SDS011;55512;50.102;19.958;2023-06-14T09:26:19;9.70;;;5.40;;
68509;SDS011;55512;50.102;19.958;2023-06-14T09:28:49;7.40;;;4.10;;
68509;SDS011;55512;50.102;19.958;2023-06-14T09:31:19;9.20;;;5.10;;
68509;SDS011;55512;50.102;19.958;2023-06-14T09:33:47;7.10;;;4.60;;
68509;SDS011;55512;50.102;19.958;2023-06-14T09:36:20;9.50;;;5.10;;
68509;SDS011;55512;50.102;19.958;2023-06-14T09:38:57;8.10;;;4.80;;
68509;SDS011;55512;50.102;19.958;2023-06-14T09:41:39;6.80;;;3.20;;
68509;SDS011;55512;50.102;19.958;2023-06-14T09:44:07;8.40;;;4.60;;
68509;SDS011;55512;50.102;19.958;2023-06-14T09:46:35;8.30;;;5.30;;
68509;SDS011;55512;50.102;19.958;2023-06-14T09:49:02;11.80;;;6.60;;
68509;SDS011;55512;50.102;19.958;2023-06-14T09:51:28;7.60;;;3.80;;
68509;SDS011;55512;50.102;19.958;2023-06-14T09:54:02;10.10;;;6.30;;
68509;SDS011;55512;50.102;19.958;2023-06-14T09:56:35;8.40;;;5.60;;
68509;SDS011;55512;50.102;19.958;2023-06-14T09:59:09;9.10;;;5.60;;
68509;SDS011;55512;50.102;19.958;2023-06-14T10:01:36;7.50;;;4.20;;
68509;SDS011;55512;50.102;19.958;2023-06-14T10:04:07;7.20;;;4.00;;
68509;SDS011;55512;50.102;19.958;2023-06-14T10:06:36;7.30;;;3.90;;
68509;SDS011;55512;50.102;19.958;2023-06-14T10:09:07;7.30;;;3.60;;
68509;SDS011;55512;50.102;19.958;2023-06-14T10:11:35;8.80;;;5.00;;
68509;SDS011;55512;50.102;19.958;2023-06-14T10:14:04;9.40;;;5.40;;
68509;SDS011;55512;50.102;19.958;2023-06-14T10:16:31;11.70;;;6.50;;
68509;SDS011;55512;50.102;19.958;2023-06-14T10:24:44;9.30;;;5.30;;
68509;SDS011;55512;50.102;19.958;2023-06-14T10:27:14;10.40;;;6.10;;
68509;SDS011;55512;50.102;19.958;2023-06-14T10:32:21;10.00;;;5.40;;
68509;SDS011;55512;50.102;19.958;2023-06-14T10:34:59;9.40;;;6.10;;
68509;SDS011;55512;50.102;19.958;2023-06-14T10:37:26;9.90;;;5.10;;
68509;SDS011;55512;50.102;19.958;2023-06-14T10:39:52;8.90;;;5.10;;
68509;SDS011;55512;50.102;19.958;2023-06-14T10:42:20;11.10;;;6.20;;
68509;SDS011;55512;50.102;19.958;2023-06-14T10:44:55;11.00;;;6.60;;
68509;SDS011;55512;50.102;19.958;2023-06-14T10:47:33;9.10;;;5.30;;
68509;SDS011;55512;50.102;19.958;2023-06-14T10:50:08;11.00;;;6.30;;
68509;SDS011;55512;50.102;19.958;2023-06-14T10:52:40;10.00;;;5.20;;
68509;SDS011;55512;50.102;19.958;2023-06-14T11:00:06;9.80;;;5.60;;
68509;SDS011;55512;50.102;19.958;2023-06-14T11:02:51;8.60;;;4.50;;
68509;SDS011;55512;50.102;19.958;2023-06-14T11:11:10;9.40;;;5.40;;
68509;SDS011;55512;50.102;19.958;2023-06-14T11:13:45;10.00;;;4.50;;
68509;SDS011;55512;50.102;19.958;2023-06-14T11:16:15;9.00;;;5.80;;
68509;SDS011;55512;50.102;19.958;2023-06-14T11:18:42;9.20;;;5.90;;
68509;SDS011;55512;50.102;19.958;2023-06-14T11:21:10;10.20;;;6.70;;
68509;SDS011;55512;50.102;19.958;2023-06-14T11:23:36;10.00;;;6.30;;
68509;SDS011;55512;50.102;19.958;2023-06-14T11:26:01;8.30;;;4.70;;
68509;SDS011;55512;50.102;19.958;2023-06-14T11:28:39;10.00;;;6.00;;
68509;SDS011;55512;50.102;19.958;2023-06-14T11:31:06;9.00;;;5.50;;
68509;SDS011;55512;50.102;19.958;2023-06-14T11:33:33;9.50;;;5.80;;
68509;SDS011;55512;50.102;19.958;2023-06-14T11:36:02;11.40;;;6.40;;
68509;SDS011;55512;50.102;19.958;2023-06-14T11:38:30;10.60;;;7.00;;
68509;SDS011;55512;50.102;19.958;2023-06-14T11:40:58;10.80;;;6.90;;
68509;SDS011;55512;50.102;19.958;2023-06-14T11:43:25;9.70;;;5.60;;
68509;SDS011;55512;50.102;19.958;2023-06-14T11:45:52;10.20;;;6.10;;
68509;SDS011;55512;50.102;19.958;2023-06-14T11:48:18;10.30;;;6.20;;
68509;SDS011;55512;50.102;19.958;2023-06-14T11:50:44;8.10;;;4.40;;
68509;SDS011;55512;50.102;19.958;2023-06-14T11:53:09;9.90;;;6.50;;
68509;SDS011;55512;50.102;19.958;2023-06-14T11:55:39;11.90;;;6.10;;
68509;SDS011;55512;50.102;19.958;2023-06-14T11:58:06;10.20;;;5.80;;
68509;SDS011;55512;50.102;19.958;2023-06-14T12:00:32;10.60;;;6.30;;
68509;SDS011;55512;50.102;19.958;2023-06-14T12:03:00;9.80;;;6.40;;
68509;SDS011;55512;50.102;19.958;2023-06-14T12:05:26;8.80;;;5.90;;
68509;SDS011;55512;50.102;19.958;2023-06-14T12:08:03;7.90;;;4.50;;
68509;SDS011;55512;50.102;19.958;2023-06-14T12:10:42;10.00;;;5.40;;
68509;SDS011;55512;50.102;19.958;2023-06-14T12:13:10;9.70;;;5.90;;
68509;SDS011;55512;50.102;19.958;2023-06-14T12:15:36;7.70;;;4.40;;
68509;SDS011;55512;50.102;19.958;2023-06-14T12:18:05;7.80;;;5.20;;
68509;SDS011;55512;50.102;19.958;2023-06-14T12:20:34;9.30;;;4.80;;
68509;SDS011;55512;50.102;19.958;2023-06-14T12:23:03;8.10;;;4.60;;
68509;SDS011;55512;50.102;19.958;2023-06-14T12:25:32;7.20;;;4.80;;
68509;SDS011;55512;50.102;19.958;2023-06-14T12:28:04;6.80;;;3.50;;
68509;SDS011;55512;50.102;19.958;2023-06-14T12:30:31;7.30;;;3.30;;
68509;SDS011;55512;50.102;19.958;2023-06-14T12:32:57;6.00;;;2.90;;
68509;SDS011;55512;50.102;19.958;2023-06-14T12:35:22;7.30;;;4.10;;
68509;SDS011;55512;50.102;19.958;2023-06-14T12:37:48;6.70;;;3.80;;
68509;SDS011;55512;50.102;19.958;2023-06-14T12:40:14;7.10;;;3.60;;
68509;SDS011;55512;50.102;19.958;2023-06-14T12:42:40;6.60;;;3.50;;
68509;SDS011;55512;50.102;19.958;2023-06-14T12:45:07;7.30;;;4.30;;
68509;SDS011;55512;50.102;19.958;2023-06-14T12:47:32;7.40;;;3.90;;
68509;SDS011;55512;50.102;19.958;2023-06-14T12:49:58;8.60;;;4.20;;
68509;SDS011;55512;50.102;19.958;2023-06-14T12:52:24;8.70;;;4.40;;
68509;SDS011;55512;50.102;19.958;2023-06-14T12:54:49;8.40;;;4.40;;
68509;SDS011;55512;50.102;19.958;2023-06-14T12:57:15;6.50;;;3.40;;
68509;SDS011;55512;50.102;19.958;2023-06-14T12:59:41;6.60;;;4.20;;
68509;SDS011;55512;50.102;19.958;2023-06-14T13:02:13;7.50;;;3.90;;
68509;SDS011;55512;50.102;19.958;2023-06-14T13:04:41;8.50;;;3.80;;
68509;SDS011;55512;50.102;19.958;2023-06-14T13:07:06;7.00;;;3.00;;
68509;SDS011;55512;50.102;19.958;2023-06-14T13:09:32;7.40;;;4.00;;
68509;SDS011;55512;50.102;19.958;2023-06-14T13:11:57;7.40;;;3.90;;
68509;SDS011;55512;50.102;19.958;2023-06-14T13:14:23;6.30;;;3.50;;
68509;SDS011;55512;50.102;19.958;2023-06-14T13:16:49;7.10;;;4.10;;
68509;SDS011;55512;50.102;19.958;2023-06-14T13:19:15;8.50;;;3.70;;
68509;SDS011;55512;50.102;19.958;2023-06-14T13:21:41;6.20;;;3.60;;
68509;SDS011;55512;50.102;19.958;2023-06-14T13:24:07;5.50;;;3.00;;
68509;SDS011;55512;50.102;19.958;2023-06-14T13:26:33;6.70;;;3.70;;
68509;SDS011;55512;50.102;19.958;2023-06-14T13:28:59;6.60;;;3.50;;
68509;SDS011;55512;50.102;19.958;2023-06-14T13:31:25;7.30;;;3.00;;
68509;SDS011;55512;50.102;19.958;2023-06-14T13:33:51;7.00;;;3.70;;
68509;SDS011;55512;50.102;19.958;2023-06-14T13:36:17;6.60;;;3.10;;
68509;SDS011;55512;50.102;19.958;2023-06-14T13:38:42;9.80;;;3.60;;
68509;SDS011;55512;50.102;19.958;2023-06-14T13:41:08;5.50;;;2.50;;
68509;SDS011;55512;50.102;19.958;2023-06-14T13:43:33;7.30;;;3.50;;
68509;SDS011;55512;50.102;19.958;2023-06-14T13:45:59;7.30;;;3.30;;
68509;SDS011;55512;50.102;19.958;2023-06-14T13:48:24;8.20;;;3.50;;
68509;SDS011;55512;50.102;19.958;2023-06-14T13:50:50;6.30;;;2.90;;
68509;SDS011;55512;50.102;19.958;2023-06-14T13:53:15;7.50;;;3.70;;
68509;SDS011;55512;50.102;19.958;2023-06-14T13:55:41;6.60;;;3.90;;
68509;SDS011;55512;50.102;19.958;2023-06-14T13:58:06;8.30;;;4.00;;
68509;SDS011;55512;50.102;19.958;2023-06-14T14:00:32;9.50;;;3.50;;
68509;SDS011;55512;50.102;19.958;2023-06-14T14:02:57;9.20;;;4.00;;
68509;SDS011;55512;50.102;19.958;2023-06-14T14:05:25;7.20;;;3.80;;
68509;SDS011;55512;50.102;19.958;2023-06-14T14:07:54;9.50;;;3.30;;
68509;SDS011;55512;50.102;19.958;2023-06-14T14:10:20;9.00;;;3.70;;
68509;SDS011;55512;50.102;19.958;2023-06-14T14:12:45;14.60;;;4.20;;
68509;SDS011;55512;50.102;19.958;2023-06-14T14:15:11;11.40;;;4.20;;
68509;SDS011;55512;50.102;19.958;2023-06-14T14:17:40;7.80;;;4.20;;
68509;SDS011;55512;50.102;19.958;2023-06-14T14:20:07;5.70;;;3.00;;
68509;SDS011;55512;50.102;19.958;2023-06-14T14:22:32;8.50;;;3.10;;
68509;SDS011;55512;50.102;19.958;2023-06-14T14:24:58;6.10;;;2.90;;
68509;SDS011;55512;50.102;19.958;2023-06-14T14:27:23;8.00;;;3.10;;
68509;SDS011;55512;50.102;19.958;2023-06-14T14:29:49;7.00;;;3.20;;
68509;SDS011;55512;50.102;19.958;2023-06-14T14:32:15;7.50;;;2.70;;
68509;SDS011;55512;50.102;19.958;2023-06-14T14:34:41;6.20;;;2.60;;
68509;SDS011;55512;50.102;19.958;2023-06-14T14:37:06;6.10;;;2.90;;
68509;SDS011;55512;50.102;19.958;2023-06-14T14:39:32;7.10;;;3.40;;
68509;SDS011;55512;50.102;19.958;2023-06-14T14:41:58;6.40;;;3.20;;
68509;SDS011;55512;50.102;19.958;2023-06-14T14:44:23;6.40;;;3.20;;
68509;SDS011;55512;50.102;19.958;2023-06-14T14:46:49;6.00;;;3.30;;
68509;SDS011;55512;50.102;19.958;2023-06-14T14:49:14;5.20;;;2.90;;
68509;SDS011;55512;50.102;19.958;2023-06-14T14:51:40;6.70;;;4.00;;
68509;SDS011;55512;50.102;19.958;2023-06-14T14:54:06;8.30;;;4.10;;
68509;SDS011;55512;50.102;19.958;2023-06-14T14:56:31;10.90;;;5.50;;